SEKCJA WYDRUKÓW, pokaż »

METAR EPBY 230400Z 19009KT CAVOK 09/07 Q0990=

METAR EPGD 230400Z 18012KT 5000 -RA BR FEW003 BKN007 07/06 Q0988 WS
R11 =

METAR EPKK 230400Z VRB02KT 9999 -RA FEW038 BKN063 07/05 Q0997 =

METAR EPKT 230400Z 21011KT 9999 -RA FEW046 08/04 Q0996 =

METAR EPLB 230400Z 20011KT 9999 BKN045 09/05 Q0998 =

METAR EPLL 230400Z 19009G20KT 150V230 9999 -RA FEW012 SCT038 BKN046
08/07 Q0994 =

METAR EPML 230400Z NIL=

METAR EPMO 230400Z 16007KT 130V190 6000 -RA BKN020 07/06 Q0994 =

METAR EPPO 230400Z 20011KT CAVOK 10/07 Q0990 =

METAR EPRA 230400Z 18009KT 9999 -RA OVC041 08/05 Q0996=

METAR EPRZ 230400Z 19018KT 9999 FEW033CB 09/03 Q0999 =

METAR EPSC 230400Z 24012G26KT 200V270 9999 SCT022 BKN039 11/07 Q0987
=

METAR EPSY 230400Z 17009KT 140V200 9999 BKN024 OVC040 08/04 Q0993=

METAR EPWA 230400Z 16009KT 9999 -RA BKN033 08/06 Q0995 NOSIG=

METAR EPWR 230400Z 20003KT 140V240 CAVOK 09/07 Q0994 =

METAR EPZG 230400Z 20011KT 9999 SCT046 12/09 Q0990 =
 METAR EPWR
Lokalizacja:EPWR Wrocław Strachowice
Czas:04:00 UTC
Średni kierunek wiatru:200 °
Średnia prędkość wiatru:3 węzłów
Kierunek wiatru zmienia się od:140 °
Kierunek wiatru zmienia się do:240 °
CAVOK:Widzialność 10 km i więcej, zjawisko: NIL, zachmurzenie: NSC
Temperatura powietrza:9 °C
Temperatura punktu rosy:7 °C
Ciśnienie QNH:994 hPa